地図

経路データ

SID SEASON NUMBER BASIN SUBBASIN NAME ISO_TIME NATURE LAT LON WMO_WIND WMO_PRES WMO_AGENCY TRACK_TYPE DIST2LAND LANDFALL IFLAG USA_AGENCY USA_ATCF_ID USA_LAT USA_LON USA_RECORD USA_STATUS USA_WIND USA_PRES USA_SSHS USA_R34_NE USA_R34_SE USA_R34_SW USA_R34_NW USA_R50_NE USA_R50_SE USA_R50_SW USA_R50_NW USA_R64_NE USA_R64_SE USA_R64_SW USA_R64_NW USA_POCI USA_ROCI USA_RMW USA_EYE TOKYO_LAT TOKYO_LON TOKYO_GRADE TOKYO_WIND TOKYO_PRES TOKYO_R50_DIR TOKYO_R50_LONG TOKYO_R50_SHORT TOKYO_R30_DIR TOKYO_R30_LONG TOKYO_R30_SHORT TOKYO_LAND CMA_LAT CMA_LON CMA_CAT CMA_WIND CMA_PRES HKO_LAT HKO_LON HKO_CAT HKO_WIND HKO_PRES NEWDELHI_LAT NEWDELHI_LON NEWDELHI_GRADE NEWDELHI_WIND NEWDELHI_PRES NEWDELHI_CI NEWDELHI_DP NEWDELHI_POCI REUNION_LAT REUNION_LON REUNION_TYPE REUNION_WIND REUNION_PRES REUNION_TNUM REUNION_CI REUNION_RMW REUNION_R34_NE REUNION_R34_SE REUNION_R34_SW REUNION_R34_NW REUNION_R50_NE REUNION_R50_SE REUNION_R50_SW REUNION_R50_NW REUNION_R64_NE REUNION_R64_SE REUNION_R64_SW REUNION_R64_NW BOM_LAT BOM_LON BOM_TYPE BOM_WIND BOM_PRES BOM_TNUM BOM_CI BOM_RMW BOM_R34_NE BOM_R34_SE BOM_R34_SW BOM_R34_NW BOM_R50_NE BOM_R50_SE BOM_R50_SW BOM_R50_NW BOM_R64_NE BOM_R64_SE BOM_R64_SW BOM_R64_NW BOM_ROCI BOM_POCI BOM_EYE BOM_POS_METHOD BOM_PRES_METHOD NADI_LAT NADI_LON NADI_CAT NADI_WIND NADI_PRES WELLINGTON_LAT WELLINGTON_LON WELLINGTON_WIND WELLINGTON_PRES DS824_LAT DS824_LON DS824_STAGE DS824_WIND DS824_PRES TD9636_LAT TD9636_LON TD9636_STAGE TD9636_WIND TD9636_PRES TD9635_LAT TD9635_LON TD9635_WIND TD9635_PRES TD9635_ROCI NEUMANN_LAT NEUMANN_LON NEUMANN_CLASS NEUMANN_WIND NEUMANN_PRES MLC_LAT MLC_LON MLC_CLASS MLC_WIND MLC_PRES USA_GUST BOM_GUST BOM_GUST_PER REUNION_GUST REUNION_GUST_PER USA_SEAHGT USA_SEARAD_NE USA_SEARAD_SE USA_SEARAD_SW USA_SEARAD_NW STORM_SPEED STORM_DIR
1974190N16242 1974 55 EP MM NOT_NAMED 1974-07-09 00:00:00 NR 15.7000 -117.800 main 1147 1147 O_____________ jtwc_ep EP061974 15.7000 -117.800 30 -1 0 0
1974190N16242 1974 55 EP MM NOT_NAMED 1974-07-09 03:00:00 NR 15.6875 -117.790 main 1147 1147 P_____________ EP061974 15.6875 -117.790 30 -1 0 0
1974190N16242 1974 55 EP MM NOT_NAMED 1974-07-09 06:00:00 NR 15.7000 -117.800 main 1147 1147 O_____________ jtwc_ep EP061974 15.7000 -117.800 30 -1 1 322
1974190N16242 1974 55 EP MM NOT_NAMED 1974-07-09 09:00:00 NR 15.7500 -117.842 main 1139 1139 P_____________ EP061974 15.7500 -117.842 30 -1 1 317
1974190N16242 1974 55 EP MM NOT_NAMED 1974-07-09 12:00:00 NR 15.8000 -117.900 main 1147 1147 O_____________ jtwc_ep EP061974 15.8000 -117.900 30 -1 1 296
1974190N16242 1974 55 EP MM NOT_NAMED 1974-07-09 15:00:00 NR 15.7925 -117.935 main 1147 1147 P_____________ EP061974 15.7925 -117.935 30 -1 1 270
1974190N16242 1974 55 EP MM NOT_NAMED 1974-07-09 18:00:00 NR 15.8000 -118.000 main 1154 1154 O_____________ jtwc_ep EP061974 15.8000 -118.000 30 -1 2 297
1974190N16242 1974 55 EP MM NOT_NAMED 1974-07-09 21:00:00 NR 15.8850 -118.127 main 1154 1154 P_____________ EP061974 15.8850 -118.127 30 -1 4 305
1974190N16242 1974 55 EP MM NOT_NAMED 1974-07-10 00:00:00 NR 16.0000 -118.300 main 1162 1162 O_________O___ jtwc_ep EP061974 16.0000 -118.300 30 -1 16.0000 -118.300 1 30 4 301
1974190N16242 1974 55 EP MM NOT_NAMED 1974-07-10 03:00:00 NR 16.0982 -118.493 main 1169 1166 P_________P___ EP061974 16.0925 -118.493 30 -1 16.1095 -118.494 1 30 4 299
1974190N16242 1974 55 EP MM NOT_NAMED 1974-07-10 06:00:00 NR 16.2108 -118.696 main 1172 1169 O_________P___ jtwc_ep EP061974 16.2000 -118.700 30 -1 16.2251 -118.690 1 30 5 303
1974190N16242 1974 55 EP MM NOT_NAMED 1974-07-10 09:00:00 NR 16.3478 -118.896 main 1175 1164 P_________P___ EP061974 16.3425 -118.900 30 -1 16.3532 -118.891 1 30 5 307
1974190N16242 1974 55 EP MM NOT_NAMED 1974-07-10 12:00:00 NR 16.5000 -119.100 main 1170 1168 O_________O___ jtwc_ep EP061974 16.5000 -119.100 30 -1 16.5000 -119.100 1 30 5 308
1974190N16242 1974 55 EP MM NOT_NAMED 1974-07-10 15:00:00 NR 16.6556 -119.305 main 1166 1164 P_________P___ EP061974 16.6425 -119.293 30 -1 16.6687 -119.318 1 30 5 309
1974190N16242 1974 55 EP MM NOT_NAMED 1974-07-10 18:00:00 NR 16.8250 -119.521 main 1170 1167 O_________P___ jtwc_ep EP061974 16.8000 -119.500 30 -1 16.8500 -119.542 1 30 6 310
1974190N16242 1974 55 EP MM NOT_NAMED 1974-07-10 21:00:00 NR 17.0194 -119.760 main 1174 1165 P_________P___ EP061974 17.0075 -119.750 30 -1 17.0312 -119.771 1 30 6 309
1974190N16242 1974 55 EP MM NOT_NAMED 1974-07-11 00:00:00 NR 17.2000 -120.000 main 1172 1171 O_________O___ jtwc_ep EP061974 17.2000 -120.000 30 -1 17.2000 -120.000 1 30 5 305
1974190N16242 1974 55 EP MM NOT_NAMED 1974-07-11 03:00:00 NR 17.3130 -120.195 main 1178 1178 P_________P___ EP061974 17.3074 -120.200 30 -1 17.3186 -120.189 1 30 4 300
1974190N16242 1974 55 EP MM NOT_NAMED 1974-07-11 06:00:00 NR 17.4134 -120.392 main 1185 1185 O_________P___ jtwc_ep EP061974 17.4000 -120.400 30 -1 17.4268 -120.384 1 30 5 299
1974190N16242 1974 55 EP MM NOT_NAMED 1974-07-11 09:00:00 NR 17.5370 -120.616 main 1192 1185 P_________P___ EP061974 17.5274 -120.620 30 -1 17.5466 -120.611 1 30 6 301
1974190N16242 1974 55 EP MM NOT_NAMED 1974-07-11 12:00:00 NR 17.7000 -120.900 main 1200 1200 O_________O___ jtwc_ep EP061974 17.7000 -120.900 30 -1 17.7000 -120.900 1 30 7 302
1974190N16242 1974 55 EP MM NOT_NAMED 1974-07-11 15:00:00 NR 17.9328 -121.274 main 1217 1209 P_________P___ EP061974 17.9349 -121.263 30 -1 17.9306 -121.285 1 30 9 303
1974190N16242 1974 55 EP MM NOT_NAMED 1974-07-11 18:00:00 NR 18.1964 -121.716 main 1228 1228 O_________P___ jtwc_ep EP061974 18.2000 -121.700 30 -1 18.1929 -121.732 1 30 10 301
1974190N16242 1974 55 EP MM NOT_NAMED 1974-07-11 21:00:00 NR 18.4581 -122.203 main 1249 1249 P_________P___ EP061974 18.4575 -122.192 30 -1 18.4586 -122.213 1 30 11 298
1974190N16242 1974 55 EP MM NOT_NAMED 1974-07-12 00:00:00 NR 18.7000 -122.700 main 1273 1271 O_________O___ jtwc_ep EP061974 18.7000 -122.700 30 -1 18.7000 -122.700 1 30 10 297
1974190N16242 1974 55 EP MM NOT_NAMED 1974-07-12 03:00:00 NR 18.9332 -123.174 main 1290 1281 P_________P___ EP061974 18.9223 -123.158 30 -1 18.9440 -123.190 1 30 10 296
1974190N16242 1974 55 EP MM NOT_NAMED 1974-07-12 06:00:00 NR 19.1252 -123.637 main 1300 1298 O_________P___ jtwc_ep EP061974 19.1000 -123.600 30 -1 19.1504 -123.674 1 30 9 291
1974190N16242 1974 55 EP MM NOT_NAMED 1974-07-12 09:00:00 NR 19.2633 -124.097 main 1318 1318 P_________P___ EP061974 19.2450 -124.072 30 -1 19.2816 -124.121 1 30 8 282
1974190N16242 1974 55 EP MM NOT_NAMED 1974-07-12 12:00:00 NR 19.3000 -124.500 main 1347 1347 O_________O___ jtwc_ep EP061974 19.3000 -124.500 30 -1 19.3000 -124.500 1 30 7 267
1974190N16242 1974 55 EP MM NOT_NAMED 1974-07-12 15:00:00 NR 19.2279 -124.820 main 1377 1377 P_________P___ EP061974 19.2749 -124.853 30 -1 19.1809 -124.788 1 30 6 242
1974190N16242 1974 55 EP MM NOT_NAMED 1974-07-12 18:00:00 NR 19.0248 -125.050 main 1415 1415 O_________P___ jtwc_ep EP061974 19.1000 -125.100 30 -1 18.9496 -125.001 1 30 6 214
1974190N16242 1974 55 EP MM NOT_NAMED 1974-07-12 21:00:00 NR 18.6968 -125.198 main 1446 1446 P_________P___ EP061974 18.7500 -125.233 30 -1 18.6435 -125.163 1 30 8 198
1974190N16242 1974 55 EP MM NOT_NAMED 1974-07-13 00:00:00 NR 18.3000 -125.300 main 1486 O_________O___ jtwc_ep EP061974 18.3000 -125.300 30 -1 18.3000 -125.300 1 30 8 194

IBTrACS Databaseについて

本データベースは、米国NOAAが公開する1842年以降の世界の熱帯低気圧のベストトラックデータアーカイブInternational Best Track Archive for Climate Stewardship (IBTrACS)を、ウェブで閲覧しやすい形式に変換したものです。

最終更新日:2021-11-26